Airfield :
LOGIN :

Register | Disclaimer

   EN    FR    IT 

 










Legend :    VFR   Marginal VFR   IFR   Intensive IFR   Very Intensive IFR
Visi :
Ceiling :
>= 8 km
>= 3000ft
5 to 8 km
1000 to 3000 ft
1500m to 5 km
500 to 1000 ft
800 to 1500m
200 to 500 ft
< 800m
< 200 ft
Symbols :   Thunderstorms  Fog  Heavy snow  Heavy precipitations  Wind > 20 kt
SIGMETs :     Misc.  Thunderstorms  Icing  Turbulence  Mountain Waves  Volcanic Ashes






- Airport Elevation : 464 ft
- IATA code : EVX


LFOE - Evreux

CURRENT METAR :
  • 101030Z AUTO 12005KT 090V150 4700 -RA BR OVC005/// ///CB 09/09 Q1009 TEMPO SHRA BKN015TCU

EXPIRED METARs :
  • 101000Z AUTO 11005KT 4100 BR BKN003/// OVC008/// ///TCU 09/08 Q1009 TEMPO 9999 NSW BKN010 OVC017 BECMG 20010G20KT
  • 100930Z AUTO 09005KT 3600 BR OVC002/// ///TCU 08/08 Q1009 TEMPO 9999 NSW BKN010 OVC017 BECMG 20010G20KT
  • 100900Z AUTO 09006KT 3000 -RADZ BR OVC002/// ///TCU 08/07 Q1010 BECMG 20010G20KT 9999 NSW BKN010 OVC017
  • 100830Z AUTO 08005KT 1800 1200 R22/1700D DZ BR OVC002/// ///TCU 07/07 Q1010 BECMG 20010G20KT 9999 NSW BKN010 OVC017
  • 100800Z AUTO 09006KT 2500 -RA BR OVC002/// ///TCU 07/07 Q1010 BECMG RADZ BKN004 OVC010

TAF TAF LFOE
Valid from the 10 at 09:00 until the 11 at 09:00 UTC


100800Z 1009/1109 08005KT 2500 RADZ BKN003 OVC010
BECMG 1010/1011 20010G20KT 9999 NSW BKN010 OVC017
TEMPO 1011/1105 4000 SHRA BKN015TCU
PROB40
TEMPO 1014/1020 24015G30KT 2000 TSRA BKN015CB BKN025
BECMG 1103/1105 SCT015 BKN025



MET'MAP, your aeronautical weather chart ! - Copyright ORBIFLY December 2007 - Disclaimer

ORBIFLY MET'MAP TEAM :

Programming & Development : Alexandra Zaïnal
Concept & original design : Baudouin d'Aumeries
Assistance for programming : Marc-Olivier Méhu
Technical & hardware support : Manuel Goepfert

Contact : metmap@orbifly.com




SOURCES & CREDITS :

   NOAA